Latest Weather Observations for Camden

IDN60801

Issued at 10:35 am EST Thursday 17 April 2014 (issued every 30 minutes, with the page automatically refreshed every 10 minutes)

About weather observations | Map of weather stations | Latest weather observations for NSW | Other Formats
Station Details ID: 068192 Name: CAMDEN AIRPORT AWS Lat: -34.04 Lon: 150.69 Height: 73.9 m
Data from the previous 72 hours. | See also: Recent months at Camden
Date/Time
EST
Temp
°C
App
Temp
°C
Dew
Point
Rel
Hum
%
Delta-T
°C
Wind Press
QNH
hPa
Press
MSL
hPa
Rain
since 9 am
mm
Dir
 
Spd
km/h
Gust
km/h
Spd
kts
Gust
kts
17/10:30am 21.0 19.5 10.5 51 5.7 SSW 9 15 5 8 1019.9 - 0.0
17/10:00am 19.7 18.5 10.4 55 5.0 SSW 7 11 4 6 1020.1 - 0.0
17/09:30am 18.0 17.2 11.8 67 3.4 SSW 7 9 4 5 1020.1 - 0.0
17/09:00am 16.4 15.5 10.7 69 3.0 SSE 6 7 3 4 1020.1 1020.0 0.0
17/08:30am 15.1 14.2 10.7 75 2.3 SSE 6 7 3 4 1020.2 - 0.0
17/08:00am 13.4 12.0 10.8 84 1.4 ESE 9 11 5 6 1020.1 - 0.0
17/07:30am 11.5 11.7 10.4 93 0.6 CALM 0 0 0 0 1019.9 - 0.0
17/07:00am 9.7 9.5 9.2 97 0.2 CALM 0 0 0 0 1019.6 - 0.0
17/06:30am 8.8 8.4 8.2 96 0.3 CALM 0 0 0 0 1019.2 - 0.0
17/06:00am 9.1 6.7 8.5 96 0.3 SE 11 13 6 7 1019.0 1018.9 0.0
17/05:30am 8.8 8.3 7.9 94 0.4 CALM 0 0 0 0 1018.8 - 0.0
17/05:00am 8.9 8.1 8.0 94 0.4 ESE 2 7 1 4 1018.7 - 0.0
17/04:30am 9.6 7.2 8.7 94 0.4 SE 11 13 6 7 1018.6 - 0.0
17/04:00am 9.4 9.1 8.5 94 0.4 CALM 0 0 0 0 1018.5 - 0.0
17/03:30am 9.6 9.3 8.7 94 0.4 CALM 0 0 0 0 1018.3 - 0.0
17/03:00am 9.7 9.0 8.5 92 0.6 SE 2 6 1 3 1018.3 1018.2 0.0
17/02:30am 9.8 9.5 8.6 92 0.6 CALM 0 0 0 0 1018.3 - 0.0
17/02:00am 11.3 11.4 10.2 93 0.6 CALM 0 0 0 0 1018.6 - 0.0
17/01:30am 11.1 11.2 10.2 94 0.5 CALM 0 0 0 0 1018.9 - 0.0
17/01:00am 10.7 10.6 9.5 92 0.6 CALM 0 0 0 0 1019.1 - 0.0
17/12:30am 11.0 11.0 9.8 92 0.6 CALM 0 0 0 0 1019.3 - 0.0
17/12:00am 11.0 9.7 9.3 89 0.9 SSE 6 7 3 4 1019.4 1019.3 0.0
 
Date/Time
EST
Temp
°C
App
Temp
°C
Dew
Point
Rel
Hum
%
Delta-T
°C
Wind Press
QNH
hPa
Press
MSL
hPa
Rain
since 9 am
mm
Dir
 
Spd
km/h
Gust
km/h
Spd
kts
Gust
kts
16/11:30pm 11.8 11.9 10.0 89 0.9 CALM 0 0 0 0 1019.4 - 0.0
16/11:00pm 11.8 10.7 10.0 89 0.9 SW 6 7 3 4 1019.4 - 0.0
16/10:40pm 12.0 12.1 10.2 89 0.9 CALM 0 0 0 0 1019.5 - 0.0
16/10:30pm 12.3 12.5 10.4 88 1.0 CALM 0 0 0 0 1019.6 - 0.0
16/10:19pm 12.6 12.8 10.7 88 1.0 CALM 0 0 0 0 1019.6 - 0.0
16/10:00pm 12.8 12.8 11.0 89 0.9 NW 2 6 1 3 1019.7 - 0.0
16/09:30pm 13.4 12.5 10.8 84 1.4 W 6 7 3 4 1019.8 - 0.0
16/09:00pm 13.0 12.0 10.9 87 1.1 W 7 9 4 5 1019.7 1019.6 0.0
16/08:31pm 13.7 14.0 10.9 83 1.5 CALM 0 0 0 0 1019.5 - 0.0
16/08:30pm 13.9 14.3 11.1 83 1.5 CALM 0 0 0 0 1019.5 - 0.0
16/08:16pm 13.9 14.2 10.9 82 1.6 CALM 0 0 0 0 1019.5 - 0.0
16/08:00pm 14.1 14.5 11.1 82 1.6 CALM 0 4 0 2 1019.3 - 0.0
16/07:30pm 14.7 13.8 10.7 77 2.1 WSW 6 7 3 4 1019.1 - 0.0
16/07:00pm 16.0 15.4 10.3 69 3.0 SSW 4 6 2 3 1018.9 - 0.0
16/06:30pm 16.8 15.3 10.4 66 3.4 SSE 9 11 5 6 1018.6 - 0.0
16/06:00pm 17.2 16.1 10.6 65 3.5 SSE 7 9 4 5 1018.3 1018.2 0.0
16/05:30pm 18.4 16.1 10.5 60 4.3 SSE 13 17 7 9 1018.0 - 0.0
16/05:00pm 19.3 16.9 10.0 55 5.0 SSE 13 20 7 11 1017.6 - 0.0
16/04:30pm 20.9 18.5 10.1 50 5.9 SSE 13 19 7 10 1017.4 - 0.0
16/04:00pm 20.7 17.8 9.6 49 6.0 SSE 15 24 8 13 1017.4 - 0.0
16/03:30pm 21.6 18.9 10.4 49 6.1 SE 15 20 8 11 1017.4 - 0.0
16/03:00pm 21.9 19.1 10.1 47 6.4 SSE 15 22 8 12 1017.4 1017.3 0.0
16/02:30pm 21.5 18.5 9.4 46 6.5 SSE 15 20 8 11 1017.6 - 0.0
16/02:00pm 22.7 20.6 11.1 48 6.5 S 13 19 7 10 1017.6 - 0.0
16/01:30pm 21.3 19.0 10.5 50 5.9 S 13 19 7 10 1017.7 - 0.0
16/01:00pm 22.3 20.4 10.5 47 6.5 SSW 11 19 6 10 1017.9 - 0.0
16/12:30pm 21.8 18.8 10.6 49 6.2 SSW 17 28 9 15 1018.4 - 0.0
16/12:00pm 22.0 19.1 11.1 50 6.0 S 17 28 9 15 1019.0 1018.9 0.0
16/11:30am 21.0 18.1 11.1 53 5.5 S 17 24 9 13 1019.7 - 0.0
16/11:00am 20.2 17.6 10.6 54 5.2 SSW 15 22 8 12 1019.9 - 0.0
16/10:30am 20.6 18.7 10.4 52 5.6 SSW 11 19 6 10 1020.0 - 0.0
16/10:00am 19.6 16.2 10.6 56 4.9 SW 19 24 10 13 1020.3 - 0.0
16/09:30am 19.2 15.5 10.2 56 4.8 SW 20 26 11 14 1020.4 - 0.0
16/09:00am 18.6 15.5 10.4 59 4.4 SW 17 26 9 14 1020.6 1020.5 0.0
16/08:30am 17.5 14.3 9.9 61 4.0 SW 17 28 9 15 1020.6 - 0.0
16/08:00am 17.2 13.4 8.9 58 4.3 SW 19 28 10 15 1020.4 - 0.0
16/07:30am 16.9 14.0 9.8 63 3.7 SW 15 20 8 11 1020.2 - 0.0
16/07:00am 15.8 12.8 9.2 65 3.4 SW 15 20 8 11 1019.9 - 0.0
16/06:30am 15.5 12.1 9.2 66 3.3 SSW 17 26 9 14 1019.6 - 0.0
16/06:00am 15.5 12.2 9.4 67 3.2 SW 17 24 9 13 1019.4 1019.3 0.0
16/05:30am 15.7 12.4 9.4 66 3.3 SW 17 24 9 13 1019.3 - 0.0
16/05:00am 15.5 12.2 9.6 68 3.1 SW 17 22 9 12 1019.1 - 0.0
16/04:30am 15.3 12.4 9.7 69 2.9 SW 15 24 8 13 1019.1 - 0.0
16/04:00am 14.8 11.9 9.8 72 2.6 SW 15 20 8 11 1019.0 - 0.0
16/03:30am 14.5 12.8 9.7 73 2.5 SW 9 13 5 7 1019.1 - 0.0
16/03:00am 14.8 11.9 9.8 72 2.6 SW 15 20 8 11 1019.2 1019.1 0.0
16/02:30am 14.7 12.3 10.1 74 2.4 SW 13 17 7 9 1019.3 - 0.0
16/02:00am 14.7 12.3 10.1 74 2.4 SW 13 17 7 9 1019.6 - 0.0
16/01:30am 14.8 12.3 9.8 72 2.6 SW 13 17 7 9 1020.0 - 0.0
16/01:00am 15.1 12.7 9.9 71 2.7 SW 13 15 7 8 1020.1 - 0.0
16/12:30am 15.1 13.0 9.9 71 2.7 SW 11 15 6 8 1020.2 - 0.0
16/12:00am 16.0 14.0 10.3 69 3.0 SW 11 17 6 9 1020.5 1020.4 0.0
 
Date/Time
EST
Temp
°C
App
Temp
°C
Dew
Point
Rel
Hum
%
Delta-T
°C
Wind Press
QNH
hPa
Press
MSL
hPa
Rain
since 9 am
mm
Dir
 
Spd
km/h
Gust
km/h
Spd
kts
Gust
kts
15/11:30pm 16.3 14.3 10.2 67 3.2 SW 11 17 6 9 1020.4 - 0.0
15/11:00pm 16.5 14.7 10.8 69 3.1 SW 11 20 6 11 1020.5 - 0.0
15/10:30pm 16.1 16.3 11.7 75 2.4 S 2 9 1 5 1020.7 - 0.0
15/10:00pm 16.6 17.1 11.5 72 2.8 CALM 0 0 0 0 1020.9 - 0.0
15/09:30pm 16.9 16.2 11.4 70 3.0 S 6 7 3 4 1021.0 - 0.0
15/09:00pm 17.4 15.8 11.4 68 3.3 SSW 11 17 6 9 1020.9 1020.8 0.0
15/08:30pm 17.5 15.4 11.3 67 3.4 S 13 20 7 11 1020.6 - 0.0
15/08:00pm 17.6 15.3 11.6 68 3.3 SSW 15 19 8 10 1020.4 - 0.0
15/07:30pm 17.6 15.6 11.4 67 3.4 S 13 20 7 11 1020.3 - 0.0
15/07:00pm 17.9 15.1 11.5 66 3.5 S 17 28 9 15 1020.1 - 0.0
15/06:30pm 18.1 15.1 11.9 67 3.4 S 19 26 10 14 1019.8 - 0.0
15/06:00pm 18.2 16.1 12.4 69 3.2 S 15 24 8 13 1019.5 1019.4 0.0
15/05:30pm 18.4 15.9 12.4 68 3.3 SSE 17 26 9 14 1019.1 - 0.0
15/05:00pm 19.0 17.0 12.7 67 3.5 SSE 15 20 8 11 1018.8 - 0.0
15/04:30pm 19.5 16.3 12.0 62 4.2 SSE 20 30 11 16 1018.8 - 0.0
15/04:00pm 21.1 18.0 10.3 50 5.9 SSE 17 24 9 13 1018.5 - 0.0
15/03:30pm 21.3 17.6 9.5 47 6.3 SSE 19 26 10 14 1018.5 - 0.0
15/03:00pm 22.3 19.6 7.3 38 7.8 SSW 11 17 6 9 1018.4 1018.3 0.0
15/02:30pm 22.3 20.2 8.4 41 7.4 SW 9 13 5 7 1018.4 - 0.0
15/02:00pm 22.3 20.9 8.8 42 7.2 SSE 6 9 3 5 1018.4 - 0.0
15/01:30pm 21.7 19.6 8.2 42 7.1 S 9 15 5 8 1018.5 - 0.0
15/01:00pm 21.5 19.3 7.7 41 7.2 S 9 13 5 7 1018.8 - 0.0
15/12:30pm 21.6 19.5 8.1 42 7.1 SSE 9 15 5 8 1019.0 - 0.0
15/12:00pm 21.8 19.6 8.0 41 7.2 NW 9 15 5 8 1019.5 1019.4 0.0
15/11:30am 21.4 19.6 8.0 42 7.0 WSW 7 15 4 8 1020.0 - 0.0
15/11:00am 21.4 19.9 9.0 45 6.6 SSW 7 15 4 8 1020.4 - 0.0
15/10:30am 20.1 17.4 7.5 44 6.5 S 11 17 6 9 1020.6 - 0.0
15/10:00am 19.8 17.3 8.2 47 6.0 WSW 11 17 6 9 1020.9 - 0.0
15/09:30am 19.1 16.1 7.5 47 5.9 SW 13 17 7 9 1021.0 - 0.0
15/09:00am 17.7 14.6 7.4 51 5.2 WSW 13 17 7 9 1021.1 1021.0 0.2
15/08:30am 17.0 13.4 8.2 56 4.5 SW 17 20 9 11 1021.1 - 0.2
15/08:00am 15.9 13.6 9.1 64 3.5 WSW 11 17 6 9 1021.0 - 0.2
15/07:30am 14.2 13.0 9.4 73 2.5 SSW 6 9 3 5 1020.9 - 0.2
15/07:00am 12.6 11.2 8.9 78 1.9 WSW 6 9 3 5 1020.7 - 0.2
15/06:30am 11.5 10.9 8.9 84 1.3 W 2 6 1 3 1020.5 - 0.2
15/06:00am 11.9 11.8 9.6 86 1.2 CALM 0 0 0 0 1020.6 1020.5 0.2
15/05:30am 11.9 10.9 8.7 81 1.6 SW 4 7 2 4 1020.5 - 0.2
15/05:00am 12.6 10.8 9.4 81 1.6 SSW 9 15 5 8 1020.4 - 0.2
15/04:30am 12.4 10.6 9.4 82 1.5 SSW 9 13 5 7 1020.4 - 0.2
15/04:00am 12.4 11.2 9.4 82 1.5 SSW 6 9 3 5 1020.2 - 0.2
15/03:30am 12.8 10.6 9.4 80 1.7 SSW 11 13 6 7 1020.2 - 0.2
15/03:00am 12.5 11.6 9.1 80 1.7 SW 4 9 2 5 1020.3 1020.2 0.2
15/02:30am 12.3 12.3 9.7 84 1.3 CALM 0 0 0 0 1020.5 - 0.2
15/02:00am 13.6 11.0 9.5 76 2.1 SW 13 15 7 8 1020.5 - 0.2
15/01:30am 12.9 11.1 9.4 79 1.8 SW 9 11 5 6 1020.6 - 0.2
15/01:00am 14.3 12.8 9.3 72 2.6 SW 7 9 4 5 1020.8 - 0.2
15/12:30am 14.6 12.4 9.4 71 2.7 SW 11 13 6 7 1020.8 - 0.2
15/12:00am 15.3 13.6 9.7 69 2.9 SW 9 13 5 7 1020.8 1020.7 0.2
 
Date/Time
EST
Temp
°C
App
Temp
°C
Dew
Point
Rel
Hum
%
Delta-T
°C
Wind Press
QNH
hPa
Press
MSL
hPa
Rain
since 9 am
mm
Dir
 
Spd
km/h
Gust
km/h
Spd
kts
Gust
kts
14/11:30pm 16.0 14.7 9.9 67 3.2 SW 7 13 4 7 1020.9 - 0.2
14/11:00pm 15.9 14.7 10.2 69 3.0 SW 7 9 4 5 1021.1 - 0.2
14/10:30pm 16.1 14.4 10.0 67 3.2 SW 9 13 5 7 1021.2 - 0.2
14/10:00pm 16.1 14.1 10.2 68 3.1 SSW 11 13 6 7 1021.2 - 0.2
14/09:30pm 15.9 14.4 10.4 70 2.9 S 9 13 5 7 1021.3 - 0.2
14/09:00pm 15.7 14.3 10.9 73 2.6 W 9 13 5 7 1021.5 1021.4 0.2
14/08:30pm 15.2 14.2 11.0 76 2.2 WSW 7 11 4 6 1021.3 - 0.2
14/08:00pm 15.5 16.0 11.7 78 2.1 CALM 0 0 0 0 1021.2 - 0.2
14/07:30pm 15.4 16.0 12.0 80 1.9 CALM 0 7 0 4 1021.1 - 0.2
14/07:00pm 15.8 16.8 13.1 84 1.5 CALM 0 0 0 0 1020.9 - 0.2
14/06:30pm 15.6 16.4 12.4 81 1.8 CALM 0 0 0 0 1020.7 - 0.2
14/06:00pm 15.8 15.2 12.4 80 1.9 ESE 7 9 4 5 1020.3 1020.2 0.2
14/05:30pm 17.0 16.4 12.3 74 2.6 S 7 11 4 6 1020.0 - 0.2
14/05:00pm 17.4 16.3 12.1 71 2.9 SSE 9 15 5 8 1019.9 - 0.2
14/04:30pm 17.4 16.0 12.3 72 2.8 ESE 11 15 6 8 1019.8 - 0.2
14/04:00pm 17.6 14.9 11.8 69 3.2 SE 17 24 9 13 1019.7 - 0.2
14/03:30pm 18.8 15.6 11.4 62 4.1 SE 19 30 10 16 1019.3 - 0.2
14/03:00pm 20.2 17.7 12.2 60 4.5 SSE 17 32 9 17 1019.2 1019.1 0.2
14/02:30pm 19.5 15.7 11.3 59 4.5 SSE 22 32 12 17 1019.2 - 0.2
14/02:00pm 18.9 16.6 13.1 69 3.3 S 17 24 9 13 1019.2 - 0.2
14/01:30pm 17.4 14.4 12.5 73 2.7 S 20 32 11 17 1019.3 - 0.2
14/01:00pm 18.8 16.2 11.9 64 3.8 SSE 17 32 9 17 1019.3 - 0.0
14/12:30pm 20.7 17.5 11.3 55 5.2 SSE 19 24 10 13 1019.5 - 0.0
14/12:00pm 20.0 16.0 11.7 59 4.6 SSE 24 33 13 18 1020.0 1019.9 0.0
14/11:30am 20.3 17.5 11.2 56 5.0 S 17 26 9 14 1020.2 - 0.0
14/11:00am 20.3 18.5 10.7 54 5.2 SSE 11 17 6 9 1020.4 - 0.0

Other Formats:

Comma delimited format used in spreadsheet applications
http://www.bom.gov.au/fwo/IDN60801/IDN60801.94755.axf

JavaScript Object Notation format (JSON) in row-major order
http://www.bom.gov.au/fwo/IDN60801/IDN60801.94755.json